sensor_id;sensor_type;location;lat;lon;timestamp;pressure;altitude;pressure_sealevel;temperature;humidity
9796;BME280;4937;42.680;27.704;2024-03-23T00:55:29;101776.47;;;1.93;77.54
9796;BME280;4937;42.680;27.704;2024-03-23T00:57:54;101778.03;;;1.94;76.91
9796;BME280;4937;42.680;27.704;2024-03-23T01:00:20;101783.56;;;1.97;76.53
9796;BME280;4937;42.680;27.704;2024-03-23T01:02:45;101774.19;;;1.95;76.44
9796;BME280;4937;42.680;27.704;2024-03-23T01:05:11;101767.25;;;1.97;76.14
9796;BME280;4937;42.680;27.704;2024-03-23T01:07:37;101771.91;;;1.97;76.59
9796;BME280;4937;42.680;27.704;2024-03-23T01:10:02;101778.75;;;1.91;77.40
9796;BME280;4937;42.680;27.704;2024-03-23T01:12:28;101770.25;;;1.92;77.31
9796;BME280;4937;42.680;27.704;2024-03-23T01:14:54;101769.19;;;1.97;76.38
9796;BME280;4937;42.680;27.704;2024-03-23T01:17:19;101772.59;;;1.94;76.32
9796;BME280;4937;42.680;27.704;2024-03-23T01:19:44;101761.56;;;1.87;77.10
9796;BME280;4937;42.680;27.704;2024-03-23T01:22:10;101763.09;;;1.84;76.95
9796;BME280;4937;42.680;27.704;2024-03-23T01:24:36;101758.84;;;1.87;77.25
9796;BME280;4937;42.680;27.704;2024-03-23T01:27:01;101758.84;;;1.87;77.07
9796;BME280;4937;42.680;27.704;2024-03-23T01:29:27;101757.19;;;1.82;77.10
9796;BME280;4937;42.680;27.704;2024-03-23T01:31:53;101754.22;;;1.87;77.46
9796;BME280;4937;42.680;27.704;2024-03-23T01:34:18;101754.94;;;1.84;77.62
9796;BME280;4937;42.680;27.704;2024-03-23T01:36:46;101751.56;;;1.91;77.50
9796;BME280;4937;42.680;27.704;2024-03-23T01:39:12;101755.53;;;1.93;77.69
9796;BME280;4937;42.680;27.704;2024-03-23T01:41:37;101751.22;;;1.92;77.28
9796;BME280;4937;42.680;27.704;2024-03-23T01:44:05;101746.06;;;1.87;76.40
9796;BME280;4937;42.680;27.704;2024-03-23T01:46:35;101749.22;;;1.89;76.56
9796;BME280;4937;42.680;27.704;2024-03-23T01:49:02;101743.41;;;1.75;77.75
9796;BME280;4937;42.680;27.704;2024-03-23T01:51:28;101746.94;;;1.76;77.91
9796;BME280;4937;42.680;27.704;2024-03-23T01:53:54;101741.13;;;1.77;77.62
9796;BME280;4937;42.680;27.704;2024-03-23T01:56:20;101744.31;;;1.79;77.83
9796;BME280;4937;42.680;27.704;2024-03-23T01:58:46;101748.59;;;1.80;77.17
9796;BME280;4937;42.680;27.704;2024-03-23T02:01:11;101751.69;;;1.79;77.19
9796;BME280;4937;42.680;27.704;2024-03-23T02:03:37;101748.53;;;1.77;76.44
9796;BME280;4937;42.680;27.704;2024-03-23T02:06:03;101753.59;;;1.78;76.82
9796;BME280;4937;42.680;27.704;2024-03-23T02:08:30;101750.09;;;1.78;76.36
9796;BME280;4937;42.680;27.704;2024-03-23T02:10:56;101748.53;;;1.61;76.14
9796;BME280;4937;42.680;27.704;2024-03-23T02:13:22;101747.94;;;1.52;76.92
9796;BME280;4937;42.680;27.704;2024-03-23T02:15:47;101736.69;;;1.54;76.59
9796;BME280;4937;42.680;27.704;2024-03-23T02:18:13;101738.47;;;1.31;77.31
9796;BME280;4937;42.680;27.704;2024-03-23T02:20:39;101744.06;;;1.38;77.00
9796;BME280;4937;42.680;27.704;2024-03-23T02:23:05;101741.09;;;1.43;77.31
9796;BME280;4937;42.680;27.704;2024-03-23T02:25:33;101748.13;;;1.44;76.85
9796;BME280;4937;42.680;27.704;2024-03-23T02:27:59;101741.28;;;1.34;76.85
9796;BME280;4937;42.680;27.704;2024-03-23T02:30:26;101746.78;;;1.38;77.40
9796;BME280;4937;42.680;27.704;2024-03-23T02:32:51;101750.97;;;1.35;78.01
9796;BME280;4937;42.680;27.704;2024-03-23T02:35:17;101750.09;;;1.31;78.27
9796;BME280;4937;42.680;27.704;2024-03-23T02:37:43;101746.19;;;1.29;78.48
9796;BME280;4937;42.680;27.704;2024-03-23T02:40:08;101744.59;;;1.28;79.39
9796;BME280;4937;42.680;27.704;2024-03-23T02:42:34;101750.00;;;1.28;79.05
9796;BME280;4937;42.680;27.704;2024-03-23T02:44:59;101754.94;;;1.38;78.95
9796;BME280;4937;42.680;27.704;2024-03-23T02:47:25;101748.44;;;1.42;78.54
9796;BME280;4937;42.680;27.704;2024-03-23T02:49:51;101739.75;;;1.37;77.94
9796;BME280;4937;42.680;27.704;2024-03-23T02:52:16;101745.19;;;1.37;77.93
9796;BME280;4937;42.680;27.704;2024-03-23T02:54:42;101748.53;;;1.30;78.25
9796;BME280;4937;42.680;27.704;2024-03-23T02:57:11;101742.38;;;1.33;77.96
9796;BME280;4937;42.680;27.704;2024-03-23T02:59:36;101744.94;;;1.26;78.76
9796;BME280;4937;42.680;27.704;2024-03-23T03:02:02;101748.44;;;1.27;77.57
9796;BME280;4937;42.680;27.704;2024-03-23T03:04:30;101742.94;;;1.23;77.74
9796;BME280;4937;42.680;27.704;2024-03-23T03:06:55;101740.31;;;1.27;77.67
9796;BME280;4937;42.680;27.704;2024-03-23T03:09:21;101757.41;;;1.27;77.95
9796;BME280;4937;42.680;27.704;2024-03-23T03:11:46;101749.84;;;1.21;78.44
9796;BME280;4937;42.680;27.704;2024-03-23T03:14:12;101743.38;;;1.25;77.96
9796;BME280;4937;42.680;27.704;2024-03-23T03:16:37;101750.91;;;1.16;77.56
9796;BME280;4937;42.680;27.704;2024-03-23T03:19:03;101750.78;;;1.13;77.68
9796;BME280;4937;42.680;27.704;2024-03-23T03:21:29;101751.22;;;1.15;77.40
9796;BME280;4937;42.680;27.704;2024-03-23T03:23:54;101751.31;;;1.18;78.41
9796;BME280;4937;42.680;27.704;2024-03-23T03:26:22;101745.78;;;1.15;77.71
9796;BME280;4937;42.680;27.704;2024-03-23T03:28:47;101748.78;;;1.10;78.56
9796;BME280;4937;42.680;27.704;2024-03-23T03:31:19;101755.59;;;1.03;78.54
9796;BME280;4937;42.680;27.704;2024-03-23T03:33:45;101750.97;;;1.04;79.18
9796;BME280;4937;42.680;27.704;2024-03-23T03:36:10;101745.44;;;1.00;78.20
9796;BME280;4937;42.680;27.704;2024-03-23T03:38:36;101751.41;;;1.06;78.71
9796;BME280;4937;42.680;27.704;2024-03-23T03:41:02;101750.78;;;0.97;78.79
9796;BME280;4937;42.680;27.704;2024-03-23T03:43:28;101752.25;;;0.94;78.46
9796;BME280;4937;42.680;27.704;2024-03-23T03:45:54;101752.69;;;0.96;78.44
9796;BME280;4937;42.680;27.704;2024-03-23T03:48:20;101753.22;;;1.02;78.92
9796;BME280;4937;42.680;27.704;2024-03-23T03:50:45;101750.59;;;1.06;77.92
9796;BME280;4937;42.680;27.704;2024-03-23T03:53:11;101748.25;;;1.04;78.12
9796;BME280;4937;42.680;27.704;2024-03-23T03:55:36;101749.28;;;0.99;78.90
9796;BME280;4937;42.680;27.704;2024-03-23T03:58:02;101754.59;;;0.96;79.57
9796;BME280;4937;42.680;27.704;2024-03-23T04:00:28;101744.72;;;1.03;78.71
9796;BME280;4937;42.680;27.704;2024-03-23T04:02:53;101757.97;;;1.05;77.45
9796;BME280;4937;42.680;27.704;2024-03-23T04:05:19;101757.00;;;0.97;78.47
9796;BME280;4937;42.680;27.704;2024-03-23T04:07:45;101748.69;;;1.06;77.70
9796;BME280;4937;42.680;27.704;2024-03-23T04:10:11;101749.03;;;1.05;77.28
9796;BME280;4937;42.680;27.704;2024-03-23T04:12:37;101749.56;;;1.10;78.00
9796;BME280;4937;42.680;27.704;2024-03-23T04:15:03;101746.59;;;1.15;78.18
9796;BME280;4937;42.680;27.704;2024-03-23T04:17:30;101744.22;;;1.14;77.86
9796;BME280;4937;42.680;27.704;2024-03-23T04:19:57;101755.28;;;1.21;78.11
9796;BME280;4937;42.680;27.704;2024-03-23T04:22:23;101753.25;;;1.18;78.15
9796;BME280;4937;42.680;27.704;2024-03-23T04:24:55;101756.88;;;1.22;77.77
9796;BME280;4937;42.680;27.704;2024-03-23T04:27:22;101753.88;;;1.27;77.99
9796;BME280;4937;42.680;27.704;2024-03-23T04:29:51;101758.69;;;1.33;77.69
9796;BME280;4937;42.680;27.704;2024-03-23T04:32:17;101756.59;;;1.42;77.43
9796;BME280;4937;42.680;27.704;2024-03-23T04:34:43;101754.59;;;1.55;76.37
9796;BME280;4937;42.680;27.704;2024-03-23T04:37:09;101761.31;;;1.61;75.78
9796;BME280;4937;42.680;27.704;2024-03-23T04:39:38;101759.47;;;1.65;75.15
9796;BME280;4937;42.680;27.704;2024-03-23T04:42:04;101754.84;;;1.65;75.17
9796;BME280;4937;42.680;27.704;2024-03-23T04:44:30;101756.03;;;1.99;74.82
9796;BME280;4937;42.680;27.704;2024-03-23T04:47:00;101758.38;;;2.35;73.63
9796;BME280;4937;42.680;27.704;2024-03-23T04:49:26;101751.50;;;2.98;72.64
9796;BME280;4937;42.680;27.704;2024-03-23T04:51:52;101752.56;;;3.84;68.59
9796;BME280;4937;42.680;27.704;2024-03-23T04:54:17;101754.66;;;4.83;65.23
9796;BME280;4937;42.680;27.704;2024-03-23T04:56:43;101762.38;;;5.98;60.65
9796;BME280;4937;42.680;27.704;2024-03-23T04:59:08;101751.59;;;7.30;57.30
9796;BME280;4937;42.680;27.704;2024-03-23T05:01:34;101751.41;;;8.64;53.67
9796;BME280;4937;42.680;27.704;2024-03-23T05:04:00;101753.13;;;10.08;50.25
9796;BME280;4937;42.680;27.704;2024-03-23T05:06:25;101747.72;;;11.52;45.51
9796;BME280;4937;42.680;27.704;2024-03-23T05:08:51;101745.94;;;12.89;41.71
9796;BME280;4937;42.680;27.704;2024-03-23T05:11:17;101754.97;;;14.22;38.07
9796;BME280;4937;42.680;27.704;2024-03-23T05:13:43;101759.47;;;15.52;36.16
9796;BME280;4937;42.680;27.704;2024-03-23T05:16:09;101765.50;;;16.75;33.67
9796;BME280;4937;42.680;27.704;2024-03-23T05:18:35;101763.84;;;17.97;31.08
9796;BME280;4937;42.680;27.704;2024-03-23T05:21:00;101764.22;;;19.13;29.31
9796;BME280;4937;42.680;27.704;2024-03-23T05:23:28;101769.28;;;20.12;27.73
9796;BME280;4937;42.680;27.704;2024-03-23T05:25:53;101774.09;;;21.03;26.18
9796;BME280;4937;42.680;27.704;2024-03-23T05:28:19;101764.47;;;21.93;25.12
9796;BME280;4937;42.680;27.704;2024-03-23T05:30:53;101770.34;;;22.81;23.63
9796;BME280;4937;42.680;27.704;2024-03-23T05:33:19;101766.38;;;23.67;22.28
9796;BME280;4937;42.680;27.704;2024-03-23T05:35:45;101766.75;;;24.38;21.49
9796;BME280;4937;42.680;27.704;2024-03-23T05:38:11;101770.69;;;25.07;20.87
9796;BME280;4937;42.680;27.704;2024-03-23T05:40:37;101771.94;;;25.56;20.12
9796;BME280;4937;42.680;27.704;2024-03-23T05:43:06;101765.38;;;26.00;19.47
9796;BME280;4937;42.680;27.704;2024-03-23T05:45:31;101755.09;;;26.54;18.65
9796;BME280;4937;42.680;27.704;2024-03-23T05:47:57;101755.69;;;27.12;18.77
9796;BME280;4937;42.680;27.704;2024-03-23T05:50:23;101769.31;;;27.67;17.81
9796;BME280;4937;42.680;27.704;2024-03-23T05:52:51;101765.59;;;28.20;17.57
9796;BME280;4937;42.680;27.704;2024-03-23T05:55:17;101758.78;;;28.66;16.28
9796;BME280;4937;42.680;27.704;2024-03-23T05:57:42;101760.22;;;29.04;16.66
9796;BME280;4937;42.680;27.704;2024-03-23T06:00:08;101754.00;;;29.51;15.32
9796;BME280;4937;42.680;27.704;2024-03-23T06:02:44;101765.28;;;29.82;15.87
9796;BME280;4937;42.680;27.704;2024-03-23T06:05:11;101759.63;;;30.29;15.28
9796;BME280;4937;42.680;27.704;2024-03-23T06:07:37;101751.31;;;30.65;14.83
9796;BME280;4937;42.680;27.704;2024-03-23T06:10:04;101755.00;;;31.14;14.35
9796;BME280;4937;42.680;27.704;2024-03-23T06:12:31;101750.50;;;31.39;13.61
9796;BME280;4937;42.680;27.704;2024-03-23T06:14:56;101743.81;;;31.93;13.83
9796;BME280;4937;42.680;27.704;2024-03-23T06:17:21;101749.09;;;32.32;13.38
9796;BME280;4937;42.680;27.704;2024-03-23T06:19:47;101749.81;;;32.83;13.40
9796;BME280;4937;42.680;27.704;2024-03-23T06:22:12;101752.47;;;32.96;12.38
9796;BME280;4937;42.680;27.704;2024-03-23T06:24:38;101748.84;;;33.26;12.60
9796;BME280;4937;42.680;27.704;2024-03-23T06:27:04;101745.59;;;33.52;11.90
9796;BME280;4937;42.680;27.704;2024-03-23T06:29:29;101749.16;;;33.83;12.05
9796;BME280;4937;42.680;27.704;2024-03-23T06:31:55;101736.06;;;34.20;11.94
9796;BME280;4937;42.680;27.704;2024-03-23T06:34:21;101744.97;;;34.63;11.58
9796;BME280;4937;42.680;27.704;2024-03-23T06:36:49;101746.78;;;35.08;11.73
9796;BME280;4937;42.680;27.704;2024-03-23T06:39:18;101734.44;;;35.57;11.66
9796;BME280;4937;42.680;27.704;2024-03-23T06:41:51;101731.34;;;35.97;11.10
9796;BME280;4937;42.680;27.704;2024-03-23T06:44:17;101735.59;;;36.49;10.61
9796;BME280;4937;42.680;27.704;2024-03-23T06:46:42;101730.38;;;36.91;10.30
9796;BME280;4937;42.680;27.704;2024-03-23T06:49:08;101735.81;;;37.33;10.11
9796;BME280;4937;42.680;27.704;2024-03-23T06:51:34;101738.56;;;37.79;9.69
9796;BME280;4937;42.680;27.704;2024-03-23T06:53:59;101741.09;;;38.32;9.57
9796;BME280;4937;42.680;27.704;2024-03-23T06:56:25;101738.81;;;38.80;9.01
9796;BME280;4937;42.680;27.704;2024-03-23T06:58:50;101733.16;;;39.22;8.91
9796;BME280;4937;42.680;27.704;2024-03-23T07:01:15;101732.75;;;39.37;8.11
9796;BME280;4937;42.680;27.704;2024-03-23T07:03:41;101737.91;;;39.60;8.22
9796;BME280;4937;42.680;27.704;2024-03-23T07:06:09;101739.88;;;39.79;7.99
9796;BME280;4937;42.680;27.704;2024-03-23T07:08:35;101737.78;;;40.12;8.18
9796;BME280;4937;42.680;27.704;2024-03-23T07:11:01;101731.91;;;40.33;7.79
9796;BME280;4937;42.680;27.704;2024-03-23T07:13:27;101735.84;;;40.37;7.60
9796;BME280;4937;42.680;27.704;2024-03-23T07:15:53;101732.81;;;40.59;7.51
9796;BME280;4937;42.680;27.704;2024-03-23T07:18:21;101736.53;;;40.82;7.18
9796;BME280;4937;42.680;27.704;2024-03-23T07:20:57;101732.97;;;40.05;7.74
9796;BME280;4937;42.680;27.704;2024-03-23T07:23:23;101721.16;;;40.12;7.92
9796;BME280;4937;42.680;27.704;2024-03-23T07:25:59;101719.34;;;40.40;8.04
9796;BME280;4937;42.680;27.704;2024-03-23T07:28:24;101719.16;;;40.71;8.00
9796;BME280;4937;42.680;27.704;2024-03-23T07:31:03;101716.00;;;40.43;7.91
9796;BME280;4937;42.680;27.704;2024-03-23T07:33:29;101707.47;;;40.13;7.92
9796;BME280;4937;42.680;27.704;2024-03-23T07:35:55;101709.56;;;39.68;8.51
9796;BME280;4937;42.680;27.704;2024-03-23T07:38:21;101715.66;;;39.84;8.33
9796;BME280;4937;42.680;27.704;2024-03-23T07:40:47;101705.31;;;39.69;8.73
9796;BME280;4937;42.680;27.704;2024-03-23T07:43:15;101697.44;;;40.14;8.50
9796;BME280;4937;42.680;27.704;2024-03-23T07:45:40;101699.31;;;38.92;8.92
9796;BME280;4937;42.680;27.704;2024-03-23T07:48:06;101701.72;;;38.96;9.07
9796;BME280;4937;42.680;27.704;2024-03-23T07:50:32;101695.38;;;37.40;10.15
9796;BME280;4937;42.680;27.704;2024-03-23T07:52:57;101688.91;;;34.21;12.15
9796;BME280;4937;42.680;27.704;2024-03-23T07:55:23;101683.72;;;35.25;12.04
9796;BME280;4937;42.680;27.704;2024-03-23T07:57:51;101685.78;;;32.56;13.84
9796;BME280;4937;42.680;27.704;2024-03-23T08:00:16;101691.69;;;34.68;12.39
9796;BME280;4937;42.680;27.704;2024-03-23T08:02:42;101684.94;;;33.61;12.45
9796;BME280;4937;42.680;27.704;2024-03-23T08:05:07;101677.47;;;32.00;15.04
9796;BME280;4937;42.680;27.704;2024-03-23T08:07:33;101679.50;;;30.04;16.07
9796;BME280;4937;42.680;27.704;2024-03-23T08:09:58;101680.81;;;33.47;12.83
9796;BME280;4937;42.680;27.704;2024-03-23T08:12:25;101676.41;;;33.54;11.67
9796;BME280;4937;42.680;27.704;2024-03-23T08:14:50;101676.28;;;34.24;11.24
9796;BME280;4937;42.680;27.704;2024-03-23T08:17:16;101674.84;;;34.97;11.08
9796;BME280;4937;42.680;27.704;2024-03-23T08:19:41;101671.94;;;34.72;11.96
9796;BME280;4937;42.680;27.704;2024-03-23T08:22:07;101668.69;;;30.23;15.02
9796;BME280;4937;42.680;27.704;2024-03-23T08:24:34;101668.28;;;32.75;13.42
9796;BME280;4937;42.680;27.704;2024-03-23T08:26:59;101662.88;;;33.39;12.42
9796;BME280;4937;42.680;27.704;2024-03-23T08:29:25;101663.09;;;33.34;12.88
9796;BME280;4937;42.680;27.704;2024-03-23T08:31:51;101659.91;;;32.69;12.80
9796;BME280;4937;42.680;27.704;2024-03-23T08:34:16;101659.97;;;34.09;12.01
9796;BME280;4937;42.680;27.704;2024-03-23T08:36:42;101656.47;;;32.63;13.13
9796;BME280;4937;42.680;27.704;2024-03-23T08:39:07;101645.09;;;33.63;12.69
9796;BME280;4937;42.680;27.704;2024-03-23T08:41:33;101653.75;;;33.95;12.39
9796;BME280;4937;42.680;27.704;2024-03-23T08:43:59;101649.91;;;33.93;11.66
9796;BME280;4937;42.680;27.704;2024-03-23T08:46:25;101653.22;;;34.22;11.94
9796;BME280;4937;42.680;27.704;2024-03-23T08:48:50;101642.81;;;34.83;11.80
9796;BME280;4937;42.680;27.704;2024-03-23T08:51:17;101643.41;;;34.32;12.12
9796;BME280;4937;42.680;27.704;2024-03-23T08:53:43;101638.59;;;34.10;12.38
9796;BME280;4937;42.680;27.704;2024-03-23T08:56:10;101634.88;;;30.54;14.65
9796;BME280;4937;42.680;27.704;2024-03-23T08:58:36;101633.63;;;30.83;15.97
9796;BME280;4937;42.680;27.704;2024-03-23T09:01:08;101631.00;;;29.76;16.60
9796;BME280;4937;42.680;27.704;2024-03-23T09:03:35;101626.41;;;29.86;15.94
9796;BME280;4937;42.680;27.704;2024-03-23T09:06:01;101622.13;;;31.52;15.02
9796;BME280;4937;42.680;27.704;2024-03-23T09:08:27;101619.53;;;33.03;13.14
9796;BME280;4937;42.680;27.704;2024-03-23T09:10:53;101632.25;;;34.19;11.88
9796;BME280;4937;42.680;27.704;2024-03-23T09:13:19;101608.09;;;34.30;12.08
9796;BME280;4937;42.680;27.704;2024-03-23T09:15:51;101619.09;;;33.76;12.28
9796;BME280;4937;42.680;27.704;2024-03-23T09:18:17;101615.56;;;32.46;13.78
9796;BME280;4937;42.680;27.704;2024-03-23T09:20:43;101608.47;;;32.32;14.18
9796;BME280;4937;42.680;27.704;2024-03-23T09:23:08;101606.22;;;32.83;12.83
9796;BME280;4937;42.680;27.704;2024-03-23T09:25:40;101602.78;;;33.62;11.87
9796;BME280;4937;42.680;27.704;2024-03-23T09:28:06;101603.63;;;33.32;12.36
9796;BME280;4937;42.680;27.704;2024-03-23T09:30:34;101596.06;;;33.12;12.99
9796;BME280;4937;42.680;27.704;2024-03-23T09:32:59;101587.94;;;32.71;13.14
9796;BME280;4937;42.680;27.704;2024-03-23T09:35:26;101593.97;;;33.20;13.02
9796;BME280;4937;42.680;27.704;2024-03-23T09:37:51;101588.53;;;33.47;12.92
9796;BME280;4937;42.680;27.704;2024-03-23T09:40:17;101588.53;;;33.86;11.80
9796;BME280;4937;42.680;27.704;2024-03-23T09:42:49;101584.19;;;33.38;12.27
9796;BME280;4937;42.680;27.704;2024-03-23T09:45:23;101571.72;;;33.58;12.80
9796;BME280;4937;42.680;27.704;2024-03-23T09:47:51;101569.66;;;32.74;13.59
9796;BME280;4937;42.680;27.704;2024-03-23T09:50:17;101565.28;;;33.50;13.31
9796;BME280;4937;42.680;27.704;2024-03-23T09:52:45;101567.75;;;31.14;15.20
9796;BME280;4937;42.680;27.704;2024-03-23T09:55:10;101556.63;;;30.96;16.05
9796;BME280;4937;42.680;27.704;2024-03-23T09:57:36;101555.97;;;28.54;18.68
9796;BME280;4937;42.680;27.704;2024-03-23T10:00:02;101558.19;;;28.29;18.70
9796;BME280;4937;42.680;27.704;2024-03-23T10:02:29;101554.38;;;28.40;18.07
9796;BME280;4937;42.680;27.704;2024-03-23T10:04:54;101553.94;;;29.07;18.12
9796;BME280;4937;42.680;27.704;2024-03-23T10:07:20;101554.06;;;27.62;19.45
9796;BME280;4937;42.680;27.704;2024-03-23T10:09:48;101544.50;;;27.65;19.44
9796;BME280;4937;42.680;27.704;2024-03-23T10:12:17;101536.09;;;25.79;21.05
9796;BME280;4937;42.680;27.704;2024-03-23T10:14:46;101534.34;;;26.71;21.00
9796;BME280;4937;42.680;27.704;2024-03-23T10:17:18;101530.91;;;26.78;19.70
9796;BME280;4937;42.680;27.704;2024-03-23T10:19:48;101530.47;;;26.68;21.07
9796;BME280;4937;42.680;27.704;2024-03-23T10:22:22;101520.13;;;27.37;19.75
9796;BME280;4937;42.680;27.704;2024-03-23T10:24:48;101527.91;;;27.37;19.76
9796;BME280;4937;42.680;27.704;2024-03-23T10:27:21;101516.00;;;26.77;20.71
9796;BME280;4937;42.680;27.704;2024-03-23T10:29:50;101515.00;;;25.51;23.24
9796;BME280;4937;42.680;27.704;2024-03-23T10:32:17;101509.97;;;26.86;21.80
9796;BME280;4937;42.680;27.704;2024-03-23T10:34:43;101506.56;;;27.30;20.86
9796;BME280;4937;42.680;27.704;2024-03-23T10:37:09;101514.28;;;26.69;20.40
9796;BME280;4937;42.680;27.704;2024-03-23T10:39:37;101496.09;;;25.70;22.16
9796;BME280;4937;42.680;27.704;2024-03-23T10:42:04;101501.72;;;27.31;20.41
9796;BME280;4937;42.680;27.704;2024-03-23T10:44:30;101487.63;;;26.59;22.44
9796;BME280;4937;42.680;27.704;2024-03-23T10:47:00;101480.50;;;27.88;19.49
9796;BME280;4937;42.680;27.704;2024-03-23T10:49:28;101481.63;;;28.29;19.39
9796;BME280;4937;42.680;27.704;2024-03-23T10:52:04;101474.69;;;27.11;20.91
9796;BME280;4937;42.680;27.704;2024-03-23T10:54:32;101472.91;;;27.27;20.70
9796;BME280;4937;42.680;27.704;2024-03-23T10:57:13;101477.63;;;26.58;21.06
9796;BME280;4937;42.680;27.704;2024-03-23T10:59:40;101457.22;;;25.00;22.42
9796;BME280;4937;42.680;27.704;2024-03-23T11:02:18;101452.41;;;25.41;22.48
9796;BME280;4937;42.680;27.704;2024-03-23T11:04:44;101449.72;;;25.60;21.79
9796;BME280;4937;42.680;27.704;2024-03-23T11:07:29;101453.56;;;26.70;20.70
9796;BME280;4937;42.680;27.704;2024-03-23T11:09:56;101444.28;;;27.12;20.31
9796;BME280;4937;42.680;27.704;2024-03-23T11:15:00;101437.84;;;26.26;21.25
9796;BME280;4937;42.680;27.704;2024-03-23T11:17:27;101434.19;;;25.36;22.17
9796;BME280;4937;42.680;27.704;2024-03-23T11:22:42;101425.13;;;24.40;23.78
9796;BME280;4937;42.680;27.704;2024-03-23T11:27:40;101421.78;;;24.47;23.00
9796;BME280;4937;42.680;27.704;2024-03-23T11:30:19;101417.88;;;26.42;21.40
9796;BME280;4937;42.680;27.704;2024-03-23T11:32:46;101416.75;;;27.12;19.77
9796;BME280;4937;42.680;27.704;2024-03-23T11:38:16;101418.25;;;27.13;18.05
9796;BME280;4937;42.680;27.704;2024-03-23T11:40:47;101414.94;;;27.78;18.18
9796;BME280;4937;42.680;27.704;2024-03-23T11:43:14;101413.06;;;25.84;21.61
9796;BME280;4937;42.680;27.704;2024-03-23T11:45:51;101406.03;;;24.79;23.34
9796;BME280;4937;42.680;27.704;2024-03-23T11:48:19;101399.59;;;23.66;25.71
9796;BME280;4937;42.680;27.704;2024-03-23T11:50:47;101399.88;;;23.68;26.29
9796;BME280;4937;42.680;27.704;2024-03-23T11:53:18;101405.31;;;25.19;24.92
9796;BME280;4937;42.680;27.704;2024-03-23T11:55:51;101386.25;;;24.22;25.82
9796;BME280;4937;42.680;27.704;2024-03-23T11:58:21;101402.06;;;23.03;27.86
9796;BME280;4937;42.680;27.704;2024-03-23T12:00:56;101384.50;;;23.36;27.67
9796;BME280;4937;42.680;27.704;2024-03-23T12:03:22;101390.84;;;22.50;28.41
9796;BME280;4937;42.680;27.704;2024-03-23T12:05:55;101385.19;;;21.97;29.33
9796;BME280;4937;42.680;27.704;2024-03-23T12:08:25;101379.75;;;20.59;31.20
9796;BME280;4937;42.680;27.704;2024-03-23T12:13:34;101379.19;;;18.99;34.78
9796;BME280;4937;42.680;27.704;2024-03-23T12:16:17;101381.16;;;19.07;34.75
9796;BME280;4937;42.680;27.704;2024-03-23T12:18:44;101373.81;;;18.57;35.11
9796;BME280;4937;42.680;27.704;2024-03-23T12:21:10;101375.31;;;19.34;34.41
9796;BME280;4937;42.680;27.704;2024-03-23T12:23:39;101375.44;;;18.63;36.76
9796;BME280;4937;42.680;27.704;2024-03-23T12:26:05;101375.81;;;18.56;36.72
9796;BME280;4937;42.680;27.704;2024-03-23T12:28:32;101365.72;;;17.79;38.18
9796;BME280;4937;42.680;27.704;2024-03-23T12:30:57;101378.28;;;16.97;39.75
9796;BME280;4937;42.680;27.704;2024-03-23T12:33:23;101369.16;;;16.96;40.85
9796;BME280;4937;42.680;27.704;2024-03-23T12:35:50;101365.75;;;16.74;41.26
9796;BME280;4937;42.680;27.704;2024-03-23T12:38:16;101358.31;;;16.98;41.28
9796;BME280;4937;42.680;27.704;2024-03-23T12:40:41;101358.31;;;17.07;41.28
9796;BME280;4937;42.680;27.704;2024-03-23T12:43:07;101351.06;;;16.64;41.78
9796;BME280;4937;42.680;27.704;2024-03-23T12:45:33;101362.66;;;16.54;41.21
9796;BME280;4937;42.680;27.704;2024-03-23T12:47:59;101343.72;;;16.22;42.68
9796;BME280;4937;42.680;27.704;2024-03-23T12:50:24;101345.25;;;16.05;43.42
9796;BME280;4937;42.680;27.704;2024-03-23T12:52:50;101344.66;;;15.70;44.61
9796;BME280;4937;42.680;27.704;2024-03-23T12:55:15;101341.28;;;15.75;45.04
9796;BME280;4937;42.680;27.704;2024-03-23T12:57:41;101333.09;;;15.41;45.67
9796;BME280;4937;42.680;27.704;2024-03-23T13:00:06;101330.94;;;14.93;47.37
9796;BME280;4937;42.680;27.704;2024-03-23T13:02:34;101330.53;;;14.81;47.90
9796;BME280;4937;42.680;27.704;2024-03-23T13:05:00;101339.56;;;14.51;48.56
9796;BME280;4937;42.680;27.704;2024-03-23T13:07:26;101336.50;;;14.24;49.72
9796;BME280;4937;42.680;27.704;2024-03-23T13:09:52;101325.72;;;14.39;50.60
9796;BME280;4937;42.680;27.704;2024-03-23T13:12:19;101332.75;;;14.31;50.33
9796;BME280;4937;42.680;27.704;2024-03-23T13:14:45;101320.94;;;13.67;52.91
9796;BME280;4937;42.680;27.704;2024-03-23T13:17:11;101338.13;;;13.50;54.28
9796;BME280;4937;42.680;27.704;2024-03-23T13:19:36;101339.34;;;13.49;56.53
9796;BME280;4937;42.680;27.704;2024-03-23T13:22:03;101333.13;;;13.45;57.05
9796;BME280;4937;42.680;27.704;2024-03-23T13:24:29;101320.63;;;13.53;56.81
9796;BME280;4937;42.680;27.704;2024-03-23T13:26:55;101323.72;;;13.30;57.29
9796;BME280;4937;42.680;27.704;2024-03-23T13:29:22;101330.78;;;12.89;58.56
9796;BME280;4937;42.680;27.704;2024-03-23T13:31:49;101338.41;;;12.85;58.03
9796;BME280;4937;42.680;27.704;2024-03-23T13:34:15;101329.47;;;12.65;59.64
9796;BME280;4937;42.680;27.704;2024-03-23T13:36:44;101329.97;;;12.48;59.00
9796;BME280;4937;42.680;27.704;2024-03-23T13:39:10;101317.25;;;12.50;58.49
9796;BME280;4937;42.680;27.704;2024-03-23T13:41:44;101328.66;;;12.81;57.42
9796;BME280;4937;42.680;27.704;2024-03-23T13:44:11;101326.88;;;12.74;57.88
9796;BME280;4937;42.680;27.704;2024-03-23T13:46:38;101331.38;;;12.68;57.49
9796;BME280;4937;42.680;27.704;2024-03-23T13:49:04;101327.59;;;12.62;58.36
9796;BME280;4937;42.680;27.704;2024-03-23T13:51:30;101332.97;;;12.53;57.89
9796;BME280;4937;42.680;27.704;2024-03-23T13:53:56;101325.03;;;12.55;58.13
9796;BME280;4937;42.680;27.704;2024-03-23T13:56:25;101320.53;;;12.45;57.20
9796;BME280;4937;42.680;27.704;2024-03-23T13:58:51;101324.09;;;12.46;56.36
9796;BME280;4937;42.680;27.704;2024-03-23T14:01:17;101317.25;;;12.50;57.54
9796;BME280;4937;42.680;27.704;2024-03-23T14:03:43;101318.56;;;12.46;55.80
9796;BME280;4937;42.680;27.704;2024-03-23T14:06:10;101314.00;;;12.23;56.10
9796;BME280;4937;42.680;27.704;2024-03-23T14:08:36;101312.13;;;12.20;57.14
9796;BME280;4937;42.680;27.704;2024-03-23T14:11:07;101305.38;;;12.21;57.41